Time;durP1;ratioP1;P1;durP2;ratioP2;P2;SDS_P1;SDS_P2;PMS_P1;PMS_P2;Temp;Humidity;BMP_temperature;BMP_pressure;BME280_temperature;BME280_humidity;BME280_pressure;Samples;Min_cycle;Max_cycle;Signal;HPM_P1;HPM_P2
2022/05/17 00:00:21;;;;;;;8.57;3.85;;;18.90;99.90;;;19.39;72.70;101832.00;4860603;29;20488;-61
2022/05/17 00:02:50;;;;;;;11.38;4.28;;;18.90;99.90;;;19.33;72.66;101824.09;4860317;29;20488;-62
2022/05/17 00:05:19;;;;;;;8.57;4.80;;;18.90;99.90;;;19.31;72.71;101825.91;4860501;29;20109;-61
2022/05/17 00:07:48;;;;;;;7.97;4.72;;;18.90;99.90;;;19.40;72.44;101829.25;4860685;29;20049;-61
2022/05/17 00:10:16;;;;;;;10.52;4.70;;;19.00;99.90;;;19.39;72.53;101830.22;4860691;29;20041;-61
2022/05/17 00:12:45;;;;;;;9.40;4.35;;;18.90;99.90;;;19.44;72.23;101827.38;4859690;29;20543;-61
2022/05/17 00:15:15;;;;;;;7.65;4.50;;;19.00;99.90;;;19.37;72.49;101837.41;4860566;29;20144;-61
2022/05/17 00:17:44;;;;;;;8.88;4.25;;;18.90;99.90;;;19.34;72.67;101839.25;4859063;29;20435;-61
2022/05/17 00:20:13;;;;;;;8.43;4.25;;;18.90;99.90;;;19.25;72.77;101837.66;4860468;29;20045;-61
2022/05/17 00:22:42;;;;;;;8.20;4.68;;;18.80;99.90;;;19.28;72.85;101842.09;4859162;29;20081;-61
2022/05/17 00:25:14;;;;;;;9.18;4.78;;;18.90;99.90;;;19.17;72.88;101818.19;4860354;29;20050;-61
2022/05/17 00:27:44;;;;;;;9.18;4.18;;;18.80;99.90;;;19.25;72.86;101831.41;4860105;29;20052;-61
2022/05/17 00:30:14;;;;;;;9.60;4.63;;;18.80;99.90;;;19.20;73.02;101834.19;4859101;29;20522;-62
2022/05/17 00:32:43;;;;;;;10.57;4.55;;;18.80;99.90;;;19.24;73.06;101838.56;4860439;29;20124;-61
2022/05/17 00:35:11;;;;;;;11.77;4.40;;;18.80;99.90;;;19.22;73.09;101832.38;4860014;29;20488;-61
2022/05/17 00:37:40;;;;;;;11.55;5.13;;;18.80;99.90;;;19.32;73.07;101838.38;4859992;29;20053;-61
2022/05/17 00:40:10;;;;;;;8.77;4.88;;;18.80;99.90;;;19.30;72.99;101829.53;4859899;29;20053;-62
2022/05/17 00:42:38;;;;;;;10.18;4.75;;;18.80;99.90;;;19.28;73.15;101840.25;4858406;29;20500;-61
2022/05/17 00:45:09;;;;;;;5.60;4.10;;;18.80;99.90;;;19.27;73.15;101832.25;4859912;29;20048;-61
2022/05/17 00:47:45;;;;;;;7.75;4.75;;;18.80;99.90;;;19.16;73.00;101813.75;4859763;29;20041;-61
2022/05/17 00:50:23;;;;;;;9.77;4.60;;;18.80;99.90;;;19.22;73.22;101826.13;4860000;29;20050;-61
2022/05/17 00:52:55;;;;;;;11.88;5.10;;;18.80;99.90;;;19.19;73.49;101829.78;4860260;29;20066;-61
2022/05/17 00:55:29;;;;;;;12.45;5.07;;;18.70;99.90;;;19.23;73.54;101833.25;4859711;29;20049;-61
2022/05/17 00:58:05;;;;;;;8.60;4.57;;;18.80;99.90;;;19.32;73.16;101835.69;4859625;29;20057;-61
2022/05/17 01:00:41;;;;;;;8.50;4.93;;;18.90;99.90;;;19.33;72.89;101834.81;4860157;29;20050;-61
2022/05/17 01:03:13;;;;;;;8.40;4.53;;;18.80;99.90;;;19.34;72.97;101839.25;4859546;29;20065;-61
2022/05/17 01:05:47;;;;;;;8.73;4.78;;;18.80;99.90;;;19.36;72.74;101841.00;4860185;29;20073;-61
2022/05/17 01:08:18;;;;;;;10.20;4.68;;;18.90;99.90;;;19.35;72.72;101838.34;4859528;29;20105;-61
2022/05/17 01:10:47;;;;;;;11.70;4.57;;;18.90;99.90;;;19.37;72.71;101840.09;4858498;29;20411;-62
2022/05/17 01:16:01;;;;;;;8.00;4.80;;;19.00;99.90;;;19.39;72.30;101845.41;4860000;29;20053;-61
2022/05/17 01:18:34;;;;;;;6.93;4.55;;;19.00;99.90;;;19.41;72.26;101835.53;4859519;29;20049;-61
2022/05/17 01:21:04;;;;;;;8.15;4.60;;;19.00;99.90;;;19.35;72.36;101843.72;4859736;29;20048;-62
2022/05/17 01:23:32;;;;;;;9.00;4.53;;;18.90;99.90;;;19.33;72.47;101853.63;4859469;29;20141;-61
2022/05/17 01:26:02;;;;;;;8.35;4.32;;;18.90;99.90;;;19.37;72.41;101848.16;4859524;29;20094;-61
2022/05/17 01:28:34;;;;;;;9.90;4.40;;;18.90;99.90;;;19.37;72.09;101837.41;4859638;29;20114;-61
2022/05/17 01:31:05;;;;;;;7.95;4.15;;;18.90;99.90;;;19.39;72.04;101845.41;4859205;29;20448;-62
2022/05/17 01:33:37;;;;;;;7.97;4.35;;;18.90;99.90;;;19.28;72.21;101837.59;4859575;29;20049;-61
2022/05/17 01:36:11;;;;;;;8.90;5.15;;;18.90;99.90;;;19.32;72.47;101841.06;4859635;29;20144;-61
2022/05/17 01:38:40;;;;;;;9.70;4.47;;;18.90;99.90;;;19.39;72.38;101845.41;4859629;29;20081;-61
2022/05/17 01:41:09;;;;;;;10.23;4.50;;;18.90;99.90;;;19.44;72.24;101844.38;4859804;29;20151;-61
2022/05/17 01:43:37;;;;;;;8.23;4.63;;;19.00;99.90;;;19.41;72.25;101838.22;4859303;29;20053;-61
2022/05/17 01:46:08;;;;;;;10.48;5.00;;;19.00;99.90;;;19.41;72.19;101833.72;4859573;29;20045;-62
2022/05/17 01:48:37;;;;;;;7.57;5.38;;;19.00;99.90;;;19.40;72.08;101831.94;4859219;29;20053;-61
2022/05/17 01:51:08;;;;;;;11.43;4.57;;;19.00;99.90;;;19.36;72.10;101832.94;4859303;29;20053;-62
2022/05/17 01:53:37;;;;;;;;;;;18.90;99.90;;;19.37;71.91;101828.47;4860446;29;20045;-61
2022/05/17 01:56:08;;;;;;;9.35;4.90;;;19.00;99.90;;;19.31;72.28;101836.63;4862972;29;20402;-62
2022/05/17 01:58:37;;;;;;;9.20;4.43;;;18.90;99.90;;;19.29;72.50;101838.47;4863187;29;20049;-61
2022/05/17 02:01:10;;;;;;;12.15;5.57;;;18.90;99.90;;;19.29;72.41;101849.22;4862609;29;20045;-62
2022/05/17 02:03:39;;;;;;;7.93;4.72;;;18.90;99.90;;;19.17;72.40;101825.34;4862716;29;20077;-61
2022/05/17 02:06:09;;;;;;;9.07;5.15;;;18.80;99.90;;;19.28;72.44;101848.31;4862767;29;20049;-61
2022/05/17 02:08:38;;;;;;;9.57;4.93;;;18.80;99.90;;;19.27;72.65;101840.31;4861633;29;20052;-61
2022/05/17 02:11:06;;;;;;;9.15;4.78;;;18.80;99.90;;;19.28;72.39;101847.47;4863045;29;20077;-62
2022/05/17 02:13:35;;;;;;;10.82;4.75;;;18.90;99.90;;;19.32;72.54;101847.34;4863016;29;20118;-61
2022/05/17 02:16:05;;;;;;;10.52;5.55;;;18.80;99.90;;;19.31;72.52;101840.22;4862691;29;20102;-61
2022/05/17 02:18:35;;;;;;;;;;;18.90;99.90;;;19.46;72.38;101841.66;4862965;29;20065;-61
2022/05/17 02:21:03;;;;;;;11.43;5.40;;;19.00;99.90;;;19.51;72.26;101847.78;4862633;29;19932;-61
2022/05/17 02:23:33;;;;;;;9.10;5.40;;;19.10;99.90;;;19.54;72.13;101845.03;4862841;29;20461;-62
2022/05/17 02:26:01;;;;;;;9.95;5.63;;;19.10;99.90;;;19.60;71.95;101845.75;4862510;29;20453;-62
2022/05/17 02:28:30;;;;;;;8.48;5.40;;;19.20;99.90;;;19.59;72.16;101840.41;4862526;29;20136;-63
2022/05/17 02:30:58;;;;;;;10.07;5.20;;;19.20;99.90;;;19.59;72.31;101843.09;4862184;29;20065;-61
2022/05/17 02:33:26;;;;;;;7.72;5.35;;;19.20;99.90;;;19.55;72.59;101834.25;4862216;29;20140;-62
2022/05/17 02:35:55;;;;;;;9.30;4.88;;;19.20;99.90;;;19.45;73.25;101848.81;4862088;29;20105;-61
2022/05/17 02:38:23;;;;;;;8.00;5.15;;;19.10;99.90;;;19.45;74.02;101842.59;4862511;29;20461;-62
2022/05/17 02:40:53;;;;;;;9.88;5.50;;;19.00;99.90;;;19.15;74.94;101813.78;4862186;29;20252;-61
2022/05/17 02:43:21;;;;;;;14.23;5.30;;;19.00;99.90;;;19.51;74.89;101845.13;4862295;29;20049;-61
2022/05/17 02:45:50;;;;;;;10.25;5.20;;;19.00;99.90;;;19.48;74.74;101843.38;4862170;29;20033;-61
2022/05/17 02:48:18;;;;;;;11.20;5.70;;;19.00;99.90;;;19.51;74.32;101845.97;4861821;29;20057;-61
2022/05/17 02:50:46;;;;;;;8.95;5.28;;;19.00;99.90;;;19.58;73.86;101854.75;4861941;29;20083;-61
2022/05/17 02:53:15;;;;;;;14.13;5.63;;;19.10;99.90;;;19.54;73.66;101851.28;4862054;29;20128;-61
2022/05/17 02:55:43;;;;;;;9.63;5.68;;;19.10;99.90;;;19.31;75.26;101850.94;4861796;29;20052;-62
2022/05/17 02:58:13;;;;;;;9.15;5.70;;;19.00;99.90;;;19.19;77.00;101845.88;4861930;29;20059;-61
2022/05/17 03:00:42;;;;;;;11.25;6.25;;;18.80;99.90;;;19.28;76.54;101859.03;4861947;29;20120;-61
2022/05/17 03:03:11;;;;;;;11.38;5.70;;;18.80;99.90;;;19.36;76.12;101862.47;4861389;29;20081;-61
2022/05/17 03:05:40;;;;;;;10.32;5.72;;;18.90;99.90;;;19.21;75.49;101872.66;4861358;29;20530;-63
2022/05/17 03:08:08;;;;;;;10.00;5.93;;;18.80;99.90;;;19.13;75.32;101869.25;4861777;29;20060;-61
2022/05/17 03:10:37;;;;;;;10.38;5.63;;;18.70;99.90;;;19.12;75.06;101878.25;4860511;29;20060;-61
2022/05/17 03:13:06;;;;;;;13.02;6.38;;;18.60;99.90;;;19.13;75.17;101878.19;4860953;29;20042;-61
2022/05/17 03:15:35;;;;;;;11.13;6.43;;;18.60;99.90;;;19.12;75.27;101875.56;4861736;29;20448;-61
2022/05/17 03:18:04;;;;;;;10.52;5.70;;;18.60;99.90;;;19.15;75.52;101873.69;4861568;29;20456;-61
2022/05/17 03:20:32;;;;;;;9.70;5.35;;;18.70;99.90;;;19.20;75.33;101871.75;4861288;29;20132;-61
2022/05/17 03:23:01;;;;;;;15.18;6.07;;;18.70;99.90;;;19.18;75.45;101865.53;4861739;29;20068;-62
2022/05/17 03:25:29;;;;;;;11.98;5.63;;;18.70;99.90;;;19.22;75.22;101869.06;4861618;29;20056;-61
2022/05/17 03:27:57;;;;;;;11.68;5.68;;;18.80;99.90;;;19.28;75.39;101874.28;4861353;29;20045;-62
2022/05/17 03:30:26;;;;;;;9.90;5.95;;;18.80;99.90;;;19.32;75.13;101882.25;4861049;29;20084;-62
2022/05/17 03:32:56;;;;;;;10.88;5.88;;;18.90;99.90;;;19.34;75.35;101887.56;4860939;29;20496;-61
2022/05/17 03:35:26;;;;;;;10.35;5.80;;;18.90;99.90;;;19.41;74.95;101887.41;4861312;29;20048;-61
2022/05/17 03:37:54;;;;;;;11.38;5.82;;;19.00;99.90;;;19.46;74.80;101885.47;4860908;29;20452;-61
2022/05/17 03:40:22;;;;;;;10.35;5.60;;;19.00;99.90;;;19.42;74.73;101882.91;4860778;29;20049;-61
2022/05/17 03:42:51;;;;;;;10.57;6.18;;;19.00;99.90;;;19.50;74.55;101897.91;4860807;29;20047;-61
2022/05/17 03:45:19;;;;;;;9.55;5.80;;;19.00;99.90;;;19.55;74.50;101900.50;4860997;29;20045;-61
2022/05/17 03:47:49;;;;;;;11.30;6.05;;;19.10;99.90;;;19.56;74.35;101903.13;4859540;29;20061;-61
2022/05/17 03:50:19;;;;;;;8.48;5.53;;;19.10;99.90;;;19.56;74.38;101897.75;4860632;29;20061;-62
2022/05/17 03:52:47;;;;;;;12.70;6.38;;;19.10;99.90;;;19.59;74.28;101907.50;4860918;29;20088;-62
2022/05/17 03:55:16;;;;;;;10.30;5.72;;;19.20;99.90;;;19.60;74.32;101910.19;4859482;29;20069;-62
2022/05/17 03:57:45;;;;;;;9.60;5.60;;;19.20;99.90;;;19.59;74.45;101903.03;4860740;29;20148;-61
2022/05/17 04:00:15;;;;;;;11.65;5.68;;;19.20;99.90;;;19.69;74.13;101906.38;4860470;29;20513;-62
2022/05/17 04:02:44;;;;;;;9.23;5.68;;;19.20;99.90;;;19.71;74.08;101902.72;4860745;29;20516;-61
2022/05/17 04:05:13;;;;;;;9.23;6.18;;;19.30;99.90;;;19.72;73.88;101907.16;4860426;29;20389;-61
2022/05/17 04:07:44;;;;;;;11.35;5.80;;;19.30;99.90;;;19.73;74.00;101900.00;4860349;29;20071;-61
2022/05/17 04:10:15;;;;;;;10.63;5.30;;;19.30;99.90;;;19.72;73.99;101904.47;4860470;29;20441;-60
2022/05/17 04:12:44;;;;;;;12.85;6.05;;;19.30;99.90;;;19.69;74.23;101899.19;4860243;29;20492;-63
2022/05/17 04:15:21;;;;;;;12.20;6.95;;;19.30;99.90;;;19.68;74.45;101910.00;4860499;29;20081;-61
2022/05/17 04:17:53;;;;;;;9.38;5.18;;;19.30;99.90;;;19.68;74.54;101910.88;4859418;29;20049;-60
2022/05/17 04:20:22;;;;;;;11.07;6.03;;;19.30;99.90;;;19.74;74.41;101920.59;4860357;29;20053;-62
2022/05/17 04:22:53;;;;;;;11.38;5.72;;;19.30;99.90;;;19.78;74.06;101922.28;4860204;29;20047;-63
2022/05/17 04:25:24;;;;;;;13.43;5.93;;;19.30;99.90;;;19.79;74.43;101921.34;4860154;29;20069;-61
2022/05/17 04:27:53;;;;;;;11.07;5.65;;;19.40;99.90;;;19.21;74.42;101819.00;4859960;29;20073;-62
2022/05/17 04:30:23;;;;;;;9.90;5.70;;;19.40;99.90;;;19.72;74.85;101927.78;4860290;29;20057;-62
2022/05/17 04:32:52;;;;;;;9.45;5.80;;;19.40;99.90;;;19.70;75.48;101927.81;4860480;29;20053;-62
2022/05/17 04:35:20;;;;;;;8.88;5.60;;;19.30;99.90;;;19.75;75.06;101933.06;4859745;29;20048;-62
2022/05/17 04:37:52;;;;;;;10.63;6.22;;;19.30;99.90;;;19.70;75.05;101935.84;4860078;29;20055;-63
2022/05/17 04:40:21;;;;;;;8.77;5.15;;;19.30;99.90;;;19.22;74.78;101826.13;4860220;29;20050;-63
2022/05/17 04:42:50;;;;;;;10.18;5.75;;;19.40;99.90;;;19.86;74.18;101936.34;4859826;29;20124;-62
2022/05/17 04:45:19;;;;;;;11.93;5.68;;;19.40;99.90;;;19.86;74.00;101935.50;4860198;29;20053;-62
2022/05/17 04:47:48;;;;;;;11.40;5.55;;;19.40;99.90;;;19.86;74.00;101946.25;4859861;29;20045;-62
2022/05/17 04:50:18;;;;;;;8.98;5.47;;;19.50;99.90;;;19.92;73.83;101940.72;4860032;29;20094;-63
2022/05/17 04:52:47;;;;;;;11.80;5.65;;;19.50;99.90;;;20.00;73.54;101941.38;4860086;29;20045;-63
2022/05/17 04:55:20;;;;;;;10.23;5.80;;;19.60;99.90;;;20.01;73.46;101941.34;4860353;29;20128;-62
2022/05/17 04:57:49;;;;;;;11.10;5.68;;;19.60;99.90;;;19.99;73.66;101929.78;4858834;29;20053;-62
2022/05/17 05:00:25;;;;;;;9.63;5.10;;;19.60;99.90;;;20.03;73.90;101931.47;4860034;29;20092;-62
2022/05/17 05:02:54;;;;;;;13.73;6.85;;;19.60;99.90;;;19.92;73.97;101932.66;4859932;29;20132;-62
2022/05/17 05:05:24;;;;;;;12.90;5.63;;;19.60;99.90;;;19.93;73.89;101942.47;4859886;29;20057;-62
2022/05/17 05:07:53;;;;;;;12.52;6.07;;;19.50;99.90;;;19.87;74.39;101940.81;4859920;29;20053;-62
2022/05/17 05:10:23;;;;;;;9.73;5.15;;;19.50;99.90;;;19.65;74.36;101945.84;4860515;29;20132;-62
2022/05/17 05:12:51;;;;;;;13.75;5.90;;;19.30;99.90;;;19.75;73.87;101950.06;4860190;29;20049;-62
2022/05/17 05:15:20;;;;;;;16.55;5.53;;;19.40;99.90;;;19.62;73.41;101940.56;4859834;29;20045;-62
2022/05/17 05:17:49;;;;;;;14.52;5.43;;;19.30;99.90;;;19.55;73.52;101940.75;4860041;29;20049;-62
2022/05/17 05:20:18;;;;;;;11.80;5.63;;;19.20;99.90;;;19.46;74.18;101949.00;4859592;29;20456;-63
2022/05/17 05:22:47;;;;;;;11.68;5.10;;;19.10;99.90;;;19.39;73.94;101940.22;4859874;29;20105;-63
2022/05/17 05:25:17;;;;;;;13.98;6.25;;;19.00;99.90;;;19.13;74.65;101949.72;4859773;29;20059;-63
2022/05/17 05:27:47;;;;;;;8.57;4.93;;;18.80;99.90;;;19.17;74.88;101944.28;4859774;29;20359;-64
2022/05/17 05:30:18;;;;;;;13.77;5.20;;;18.80;99.90;;;19.07;75.88;101939.13;4861920;29;20076;-63
2022/05/17 05:32:47;;;;;;;9.98;5.75;;;18.70;99.90;;;19.07;76.83;101939.13;4863501;29;20045;-63
2022/05/17 05:35:18;;;;;;;17.42;6.13;;;18.60;99.90;;;19.02;77.49;101941.06;4861994;29;20480;-63
2022/05/17 05:37:48;;;;;;;12.13;5.43;;;18.60;99.90;;;19.05;77.67;101935.63;4863369;29;20106;-63
2022/05/17 05:40:16;;;;;;;9.95;5.35;;;18.60;99.90;;;19.01;78.61;101934.78;4863102;29;20055;-63
2022/05/17 05:42:45;;;;;;;15.10;5.82;;;18.60;99.90;;;19.02;78.48;101935.69;4862915;29;20465;-63
2022/05/17 05:45:15;;;;;;;14.15;5.90;;;18.60;99.90;;;19.11;78.41;101938.16;4862915;29;20113;-63
2022/05/17 05:47:45;;;;;;;15.45;5.97;;;18.60;99.90;;;18.96;78.71;101934.03;4863172;29;20049;-63
2022/05/17 05:50:14;;;;;;;13.15;5.38;;;18.50;99.90;;;19.11;78.72;101939.03;4862766;29;20073;-63
2022/05/17 05:52:42;;;;;;;14.20;6.20;;;18.60;99.90;;;19.22;78.03;101937.00;4863099;29;20128;-63
2022/05/17 05:55:19;;;;;;;11.15;5.80;;;18.80;99.90;;;19.28;77.80;101930.63;4861715;29;20072;-63
2022/05/17 05:57:49;;;;;;;11.60;5.45;;;18.80;99.90;;;19.36;77.55;101955.50;4863285;29;20419;-63
2022/05/17 06:00:21;;;;;;;11.82;5.10;;;18.90;99.90;;;19.33;77.67;101942.16;4862888;29;20048;-63
2022/05/17 06:02:49;;;;;;;11.30;5.10;;;18.90;99.90;;;19.39;77.16;101947.41;4862675;29;20584;-63
2022/05/17 06:05:19;;;;;;;10.23;5.25;;;19.00;99.90;;;19.30;77.48;101945.75;4862898;29;20064;-62
2022/05/17 06:07:48;;;;;;;14.98;6.22;;;18.90;99.90;;;19.33;77.95;101947.53;4862617;29;20403;-62
2022/05/17 06:10:18;;;;;;;16.63;5.93;;;18.90;99.90;;;19.38;77.97;101953.66;4862575;29;20045;-62
2022/05/17 06:12:47;;;;;;;9.50;4.90;;;18.90;99.90;;;19.43;77.14;101951.78;4863233;29;20121;-60
2022/05/17 06:15:16;;;;;;;16.33;5.68;;;19.00;99.90;;;19.39;77.78;101955.44;4862707;29;20102;-61
2022/05/17 06:17:50;;;;;;;16.80;6.10;;;19.00;99.90;;;19.35;78.08;101959.13;4862267;29;20069;-60
2022/05/17 06:20:19;;;;;;;16.63;5.78;;;18.90;99.90;;;19.51;77.31;101945.28;4862207;29;20050;-60
2022/05/17 06:22:48;;;;;;;16.27;5.75;;;19.10;99.90;;;19.41;77.27;101946.44;4862358;29;20072;-61
2022/05/17 06:25:16;;;;;;;15.32;5.57;;;19.10;99.90;;;19.51;76.97;101942.59;4862208;29;20053;-61
2022/05/17 06:27:45;;;;;;;13.23;5.68;;;19.20;99.90;;;19.51;76.42;101931.84;4862550;29;20052;-61
2022/05/17 06:30:15;;;;;;;13.02;5.15;;;19.10;99.90;;;19.61;76.20;101938.78;4862421;29;20049;-61
2022/05/17 06:32:44;;;;;;;15.77;5.82;;;19.20;99.90;;;19.49;76.48;101924.78;4862233;29;20053;-62
2022/05/17 06:35:15;;;;;;;13.93;5.50;;;19.20;99.90;;;19.68;76.33;101944.91;4862659;29;20200;-61
2022/05/17 06:37:44;;;;;;;12.70;5.22;;;19.20;99.90;;;19.72;76.43;101933.16;4862318;29;20145;-61
2022/05/17 06:40:14;;;;;;;13.07;5.70;;;19.30;99.90;;;19.76;76.52;101924.09;4861827;29;20482;-61
2022/05/17 06:42:42;;;;;;;10.63;5.05;;;19.30;99.90;;;19.64;76.28;101932.47;4860192;29;20414;-64
2022/05/17 06:45:12;;;;;;;14.02;5.47;;;19.30;99.90;;;18.99;78.26;101933.09;4861962;29;20057;-62
2022/05/17 06:47:41;;;;;;;13.77;5.63;;;18.80;99.90;;;19.01;79.51;101932.13;4862281;29;20045;-62
2022/05/17 06:50:11;;;;;;;14.45;5.90;;;18.60;99.90;;;19.23;79.49;101937.88;4861687;29;20182;-62
2022/05/17 06:52:41;;;;;;;14.45;5.97;;;18.70;99.90;;;19.26;79.51;101935.16;4860519;29;20064;-62
2022/05/17 06:55:10;;;;;;;16.73;6.05;;;18.80;99.90;;;19.47;79.63;101938.22;4860494;29;20125;-62
2022/05/17 06:57:41;;;;;;;11.18;5.63;;;19.00;99.90;;;19.57;79.41;101942.44;4861848;29;20045;-62
2022/05/17 07:00:14;;;;;;;12.57;6.00;;;19.10;99.90;;;19.74;79.05;101956.34;4861817;29;20045;-62
2022/05/17 07:02:42;;;;;;;16.75;6.53;;;19.30;99.90;;;19.85;78.99;101956.09;4861716;29;20103;-62
2022/05/17 07:05:11;;;;;;;13.73;5.40;;;19.40;99.90;;;19.62;79.41;101891.34;4861334;29;20062;-63
2022/05/17 07:07:41;;;;;;;17.63;6.13;;;19.60;99.90;;;20.09;79.15;101963.50;4861287;29;20556;-62
2022/05/17 07:13:09;;;;;;;12.23;5.80;;;19.80;99.90;;;20.26;77.98;101952.38;4861627;29;20045;-60
2022/05/17 07:15:39;;;;;;;11.00;5.63;;;19.90;99.90;;;20.35;77.64;101955.69;4862076;29;20163;-64
2022/05/17 07:18:09;;;;;;;12.35;5.45;;;20.00;99.90;;;20.45;77.67;101951.81;4861136;29;20136;-68
2022/05/17 07:20:37;;;;;;;11.23;5.90;;;20.10;99.90;;;20.25;77.42;101916.53;4861093;29;20037;-62
2022/05/17 07:23:08;;;;;;;9.65;6.45;;;20.10;99.90;;;20.64;77.19;101955.75;4861348;29;20052;-61
2022/05/17 07:25:39;;;;;;;11.38;5.68;;;20.30;99.90;;;20.61;76.53;101953.13;4860076;29;20132;-63
2022/05/17 07:28:08;;;;;;;10.68;5.40;;;20.30;99.90;;;20.43;76.80;101963.53;4861246;29;20061;-62
2022/05/17 07:30:37;;;;;;;7.03;4.53;;;20.10;99.90;;;20.60;76.53;101951.38;4860967;29;20128;-62
2022/05/17 07:33:05;;;;;;;11.02;4.90;;;20.30;99.90;;;20.64;76.41;101961.13;4860998;29;20057;-62
2022/05/17 07:35:34;;;;;;;8.10;5.22;;;20.30;99.90;;;20.80;76.70;101963.38;4861137;29;20050;-61
2022/05/17 07:38:02;;;;;;;9.63;5.00;;;20.40;99.90;;;20.88;76.68;101975.69;4859751;29;20050;-62
2022/05/17 07:40:36;;;;;;;7.47;4.30;;;20.50;99.90;;;20.93;75.34;101973.72;4861113;29;20061;-63
2022/05/17 07:43:04;;;;;;;10.95;5.57;;;20.60;99.90;;;20.29;76.19;101923.59;4860751;29;20080;-63
2022/05/17 07:45:33;;;;;;;10.80;5.40;;;20.40;99.90;;;20.59;76.42;101971.16;4860857;29;20072;-63
2022/05/17 07:48:02;;;;;;;7.93;5.45;;;20.30;99.90;;;19.96;78.63;101970.13;4859584;29;20556;-68
2022/05/17 07:50:31;;;;;;;12.10;6.72;;;19.80;99.90;;;20.16;80.33;101975.88;4859292;29;20568;-63
2022/05/17 07:53:07;;;;;;;11.68;6.60;;;19.70;99.90;;;20.25;79.29;101972.09;4859267;29;20060;-63
2022/05/17 07:55:39;;;;;;;11.43;7.35;;;19.80;99.90;;;19.96;79.81;101967.44;4859502;29;20488;-62
2022/05/17 07:58:08;;;;;;;10.48;5.40;;;19.60;99.90;;;20.36;79.92;101980.75;4861439;29;20071;-61
2022/05/17 08:00:38;;;;;;;13.63;6.40;;;19.80;99.90;;;20.23;79.55;101982.88;4860484;29;20500;-62
2022/05/17 08:03:08;;;;;;;13.38;6.40;;;19.80;99.90;;;19.92;80.65;101987.22;4860597;29;20555;-62
2022/05/17 08:05:38;;;;;;;13.20;6.93;;;19.50;99.90;;;20.18;80.47;101979.44;4860404;29;20117;-61
2022/05/17 08:08:07;;;;;;;10.05;6.30;;;19.70;99.90;;;20.51;79.60;101985.72;4860800;29;20136;-62
2022/05/17 08:10:37;;;;;;;14.07;6.80;;;20.00;99.90;;;20.16;80.14;101986.63;4860458;29;20563;-62
2022/05/17 08:13:06;;;;;;;12.03;6.43;;;19.80;99.90;;;20.11;81.33;101988.53;4860295;29;20049;-63
2022/05/17 08:15:35;;;;;;;15.18;6.75;;;19.70;99.90;;;20.08;80.73;101982.34;4860470;29;20129;-62
2022/05/17 08:18:04;;;;;;;14.90;6.55;;;19.70;99.90;;;19.92;81.68;101976.50;4860364;29;20050;-62
2022/05/17 08:20:34;;;;;;;14.15;6.38;;;19.70;99.90;;;19.68;82.94;101979.78;4859184;29;20065;-62
2022/05/17 08:23:04;;;;;;;13.30;6.18;;;19.40;99.90;;;19.64;84.30;101964.69;4860282;29;20510;-62
2022/05/17 08:28:21;;;;;;;10.48;6.32;;;19.20;99.90;;;19.80;84.42;101975.00;4860509;29;20286;-62
2022/05/17 08:30:49;;;;;;;10.38;6.50;;;19.40;99.90;;;19.49;85.26;101971.28;4860985;29;20330;-62
2022/05/17 08:33:20;;;;;;;12.68;6.93;;;19.20;99.90;;;19.42;86.03;101966.09;4860240;29;20068;-62
2022/05/17 08:35:51;;;;;;;;;;;19.00;99.90;;;19.72;85.66;101974.28;4860779;29;20073;-62
2022/05/17 08:38:27;;;;;;;14.07;6.85;;;19.30;99.90;;;19.44;85.43;101969.63;4874845;29;19924;-62
2022/05/17 08:41:08;;;;;;;12.52;7.20;;;19.10;99.90;;;19.85;86.11;101974.88;4860549;29;20041;-63
2022/05/17 08:43:49;;;;;;;10.55;5.95;;;19.30;99.90;;;19.59;85.10;101943.31;4860269;29;20121;-63
2022/05/17 08:46:50;;;;;;;12.07;6.88;;;19.40;99.90;;;19.79;85.44;101970.56;4860468;29;20136;-62
2022/05/17 08:49:45;;;;;;;15.10;6.53;;;19.30;99.90;;;19.59;85.02;101977.31;4860485;29;20077;-62
2022/05/17 08:52:17;;;;;;;13.95;6.85;;;19.20;99.90;;;19.34;85.46;101949.28;4859756;29;20094;-63
2022/05/17 08:54:52;;;;;;;16.90;6.95;;;19.10;99.90;;;19.56;86.57;101966.66;4859701;29;20444;-62
2022/05/17 08:57:26;;;;;;;13.70;7.60;;;19.20;99.90;;;19.80;86.04;101974.13;4859814;29;20483;-63
2022/05/17 08:59:57;;;;;;;9.30;7.05;;;19.40;99.90;;;19.72;85.39;101970.75;4859783;29;20049;-62
2022/05/17 09:02:35;;;;;;;11.38;6.53;;;19.30;99.90;;;19.91;84.21;101963.09;4858751;29;20053;-62
2022/05/17 09:05:11;;;;;;;12.45;6.70;;;19.50;99.90;;;19.98;82.41;101960.22;4859423;29;20061;-64
2022/05/17 09:07:49;;;;;;;10.57;6.15;;;19.60;99.90;;;20.39;83.13;101957.38;4859805;29;20080;-62
2022/05/17 09:10:28;;;;;;;9.65;5.47;;;19.90;99.90;;;20.76;80.04;101956.31;4859790;29;20444;-62
2022/05/17 09:13:03;;;;;;;9.50;5.75;;;20.30;99.90;;;20.72;77.89;101960.03;4858555;29;20416;-62
2022/05/17 09:15:33;;;;;;;12.25;5.85;;;20.40;99.90;;;20.77;78.25;101958.09;4859730;29;20076;-62
2022/05/17 09:18:09;;;;;;;10.65;6.15;;;20.40;99.90;;;20.76;78.53;101956.31;4859902;29;20137;-62
2022/05/17 09:20:40;;;;;;;13.65;5.40;;;20.40;99.90;;;21.14;76.91;101962.34;4860171;29;20177;-62
2022/05/17 09:23:08;;;;;;;8.88;5.13;;;20.70;99.90;;;21.17;75.91;101961.41;4859826;29;20054;-62
2022/05/17 09:26:05;;;;;;;8.45;5.28;;;20.80;99.90;;;21.32;74.30;101963.59;4860300;29;20171;-63
2022/05/17 09:28:49;;;;;;;10.18;5.13;;;20.80;99.90;;;21.54;75.32;101959.31;4859987;29;20085;-63
2022/05/17 09:31:29;;;;;;;11.68;5.78;;;21.20;99.90;;;21.58;72.96;101955.59;4859767;29;20098;-63
2022/05/17 09:34:01;;;;;;;11.48;5.93;;;21.20;99.90;;;21.88;73.84;101957.31;4859328;29;20110;-64
2022/05/17 09:36:34;;;;;;;8.75;5.35;;;21.40;99.90;;;21.49;72.07;101959.47;4859647;29;20094;-63
2022/05/17 09:39:04;;;;;;;11.00;5.80;;;21.30;99.90;;;21.59;73.46;101957.34;4858291;29;20101;-64
2022/05/17 09:41:37;;;;;;;13.05;6.00;;;21.30;99.90;;;21.29;72.28;101952.94;4859707;29;20050;-64
2022/05/17 09:44:29;;;;;;;11.48;5.88;;;21.00;99.90;;;21.56;73.90;101952.06;4859281;29;20084;-65
2022/05/17 09:47:01;;;;;;;12.20;5.63;;;21.20;99.90;;;21.20;71.39;101969.34;4857856;29;20054;-64
2022/05/17 09:52:35;;;;;;;9.25;5.10;;;20.60;99.90;;;20.78;71.13;101954.47;4859516;29;20084;-63
2022/05/17 09:55:14;;;;;;;10.43;5.15;;;20.50;99.90;;;21.08;72.13;101938.31;4859208;29;20488;-64
2022/05/17 09:57:57;;;;;;;9.43;4.80;;;20.70;99.90;;;21.26;71.95;101958.41;4859436;29;20058;-64
2022/05/17 10:00:31;;;;;;;7.55;4.80;;;20.90;99.90;;;21.25;70.78;101945.91;4859124;29;20046;-64
2022/05/17 10:03:04;;;;;;;9.75;5.07;;;20.90;99.90;;;21.37;69.02;101946.38;4859396;29;20114;-63
2022/05/17 10:05:48;;;;;;;7.97;4.25;;;21.00;99.90;;;21.63;69.50;101950.03;4859231;29;20390;-63
2022/05/17 10:08:34;;;;;;;8.88;5.03;;;21.30;99.90;;;21.10;69.46;101952.63;4859236;29;20045;-63
2022/05/17 10:11:13;;;;;;;8.85;5.03;;;20.90;99.90;;;20.68;69.67;101833.72;4859123;29;20120;-63
2022/05/17 10:14:11;;;;;;;11.40;5.22;;;20.90;99.90;;;21.54;69.96;101944.00;4859009;29;20077;-63
2022/05/17 10:16:46;;;;;;;10.65;5.10;;;21.10;99.90;;;21.56;70.86;101935.91;4857455;29;20062;-63
2022/05/17 10:19:31;;;;;;;10.32;4.70;;;21.20;99.90;;;21.38;68.59;101942.78;4863076;29;20082;-62
2022/05/17 10:22:09;;;;;;;8.18;4.57;;;21.10;99.90;;;21.25;69.50;101927.91;4862396;29;20102;-63
2022/05/17 10:24:46;;;;;;;8.45;5.28;;;20.90;99.90;;;21.46;70.50;101932.63;4862440;29;20042;-63
2022/05/17 10:27:20;;;;;;;8.13;5.32;;;21.00;99.90;;;21.39;69.09;101911.31;4876467;29;20057;-64
2022/05/17 10:29:53;;;;;;;11.13;5.03;;;21.10;99.90;;;21.74;68.71;101934.44;4862390;29;20049;-63
2022/05/17 10:32:29;;;;;;;10.45;5.45;;;21.40;99.90;;;21.56;69.16;101920.63;4862619;29;20057;-63
2022/05/17 10:35:17;;;;;;;10.13;5.95;;;21.20;99.90;;;21.65;68.32;101908.66;4862300;29;20421;-63
2022/05/17 10:37:57;;;;;;;11.00;6.03;;;21.20;99.90;;;21.80;69.08;101918.03;4862127;29;20136;-63